sensor_id;sensor_type;location;lat;lon;timestamp;temperature;humidity
55151;DHT22;41041;43.162;20.538;2023-09-12T00:07:35;384.70;2329.60
55151;DHT22;41041;43.162;20.538;2023-09-12T00:59:39;384.50;2329.60
55151;DHT22;41041;43.162;20.538;2023-09-12T01:02:06;384.30;2329.60
55151;DHT22;41041;43.162;20.538;2023-09-12T01:04:32;384.10;2329.60
55151;DHT22;41041;43.162;20.538;2023-09-12T01:06:59;384.10;2329.60
55151;DHT22;41041;43.162;20.538;2023-09-12T01:12:47;384.00;2329.60
55151;DHT22;41041;43.162;20.538;2023-09-12T01:15:13;359.20;2329.60
55151;DHT22;41041;43.162;20.538;2023-09-12T01:17:44;384.00;2329.60
55151;DHT22;41041;43.162;20.538;2023-09-12T01:20:22;384.10;2329.60
55151;DHT22;41041;43.162;20.538;2023-09-12T01:28:41;359.10;2329.60
55151;DHT22;41041;43.162;20.538;2023-09-12T01:31:10;359.20;2329.60
55151;DHT22;41041;43.162;20.538;2023-09-12T01:37:00;359.00;2329.60
55151;DHT22;41041;43.162;20.538;2023-09-12T01:39:26;359.10;2329.60
55151;DHT22;41041;43.162;20.538;2023-09-12T01:41:52;359.10;2329.60
55151;DHT22;41041;43.162;20.538;2023-09-12T01:44:21;359.00;2329.60
55151;DHT22;41041;43.162;20.538;2023-09-12T01:46:49;359.00;2329.60
55151;DHT22;41041;43.162;20.538;2023-09-12T01:49:16;359.00;2329.60
55151;DHT22;41041;43.162;20.538;2023-09-12T01:59:07;358.80;2329.60
55151;DHT22;41041;43.162;20.538;2023-09-12T02:01:33;358.80;2329.60
55151;DHT22;41041;43.162;20.538;2023-09-12T02:03:59;358.70;2329.60
55151;DHT22;41041;43.162;20.538;2023-09-12T02:06:25;358.70;2329.60
55151;DHT22;41041;43.162;20.538;2023-09-12T02:08:50;358.60;2329.60
55151;DHT22;41041;43.162;20.538;2023-09-12T02:11:16;358.70;2329.60
55151;DHT22;41041;43.162;20.538;2023-09-12T02:13:42;358.70;2329.60
55151;DHT22;41041;43.162;20.538;2023-09-12T02:19:28;358.60;2329.60
55151;DHT22;41041;43.162;20.538;2023-09-12T02:21:54;358.50;2329.60
55151;DHT22;41041;43.162;20.538;2023-09-12T02:24:20;358.50;2329.60
55151;DHT22;41041;43.162;20.538;2023-09-12T02:26:47;358.80;2329.60
55151;DHT22;41041;43.162;20.538;2023-09-12T02:29:12;358.80;2329.60
55151;DHT22;41041;43.162;20.538;2023-09-12T02:31:38;358.80;2329.60
55151;DHT22;41041;43.162;20.538;2023-09-12T02:34:04;358.70;2329.60
55151;DHT22;41041;43.162;20.538;2023-09-12T02:36:30;358.60;2329.60
55151;DHT22;41041;43.162;20.538;2023-09-12T02:42:18;358.70;2329.60
55151;DHT22;41041;43.162;20.538;2023-09-12T02:44:44;358.60;2329.60
55151;DHT22;41041;43.162;20.538;2023-09-12T02:47:10;358.70;2329.60
55151;DHT22;41041;43.162;20.538;2023-09-12T02:49:36;358.50;2329.60
55151;DHT22;41041;43.162;20.538;2023-09-12T02:52:01;358.50;2329.60
55151;DHT22;41041;43.162;20.538;2023-09-12T02:54:27;358.50;2329.60
55151;DHT22;41041;43.162;20.538;2023-09-12T02:56:53;358.50;2329.60
55151;DHT22;41041;43.162;20.538;2023-09-12T02:59:19;358.60;2329.60
55151;DHT22;41041;43.162;20.538;2023-09-12T03:01:45;358.40;2329.60
55151;DHT22;41041;43.162;20.538;2023-09-12T03:07:33;358.50;2329.60
55151;DHT22;41041;43.162;20.538;2023-09-12T03:09:59;358.50;2329.60
55151;DHT22;41041;43.162;20.538;2023-09-12T03:12:25;358.50;2329.60
55151;DHT22;41041;43.162;20.538;2023-09-12T03:14:51;358.60;2329.60
55151;DHT22;41041;43.162;20.538;2023-09-12T03:17:16;358.50;2329.60
55151;DHT22;41041;43.162;20.538;2023-09-12T03:19:42;358.40;2329.60
55151;DHT22;41041;43.162;20.538;2023-09-12T03:22:08;358.40;2329.60
55151;DHT22;41041;43.162;20.538;2023-09-12T03:24:35;358.50;2329.60
55151;DHT22;41041;43.162;20.538;2023-09-12T03:27:01;358.40;2329.60
55151;DHT22;41041;43.162;20.538;2023-09-12T03:29:27;358.40;2329.60
55151;DHT22;41041;43.162;20.538;2023-09-12T03:31:53;333.60;2329.60
55151;DHT22;41041;43.162;20.538;2023-09-12T03:34:19;333.50;2329.60
55151;DHT22;41041;43.162;20.538;2023-09-12T03:36:45;333.50;2329.60
55151;DHT22;41041;43.162;20.538;2023-09-12T05:03:39;333.10;2329.60
55151;DHT22;41041;43.162;20.538;2023-09-12T05:09:37;333.20;2329.60
55151;DHT22;41041;43.162;20.538;2023-09-12T05:15:32;333.30;2329.60
55151;DHT22;41041;43.162;20.538;2023-09-12T05:21:20;333.30;2329.60
55151;DHT22;41041;43.162;20.538;2023-09-12T05:23:46;333.40;2329.60
55151;DHT22;41041;43.162;20.538;2023-09-12T05:26:12;333.40;2329.60
55151;DHT22;41041;43.162;20.538;2023-09-12T05:28:37;333.20;2329.60
55151;DHT22;41041;43.162;20.538;2023-09-12T05:31:04;333.30;2329.60
55151;DHT22;41041;43.162;20.538;2023-09-12T05:35:56;333.70;2329.60
55151;DHT22;41041;43.162;20.538;2023-09-12T05:38:22;358.40;2329.60
55151;DHT22;41041;43.162;20.538;2023-09-12T05:43:17;358.60;2329.60
55151;DHT22;41041;43.162;20.538;2023-09-12T05:45:43;358.50;2329.60
55151;DHT22;41041;43.162;20.538;2023-09-12T05:55:31;359.10;2329.60
55151;DHT22;41041;43.162;20.538;2023-09-12T05:57:57;358.80;2329.60
55151;DHT22;41041;43.162;20.538;2023-09-12T06:00:23;358.80;2329.60
55151;DHT22;41041;43.162;20.538;2023-09-12T06:02:49;358.70;2329.60
55151;DHT22;41041;43.162;20.538;2023-09-12T06:05:15;358.80;2329.60
55151;DHT22;41041;43.162;20.538;2023-09-12T06:07:41;358.90;2329.60
55151;DHT22;41041;43.162;20.538;2023-09-12T06:10:08;359.00;2329.60
55151;DHT22;41041;43.162;20.538;2023-09-12T06:12:34;359.10;2329.60
55151;DHT22;41041;43.162;20.538;2023-09-12T06:15:02;359.20;2329.60
55151;DHT22;41041;43.162;20.538;2023-09-12T06:17:29;359.30;2329.60
55151;DHT22;41041;43.162;20.538;2023-09-12T06:19:55;359.30;2329.60
55151;DHT22;41041;43.162;20.538;2023-09-12T06:22:21;384.00;2329.60
55151;DHT22;41041;43.162;20.538;2023-09-12T06:24:49;384.10;2329.60
55151;DHT22;41041;43.162;20.538;2023-09-12T06:27:15;384.20;2329.60
55151;DHT22;41041;43.162;20.538;2023-09-12T06:29:47;384.30;2329.60
55151;DHT22;41041;43.162;20.538;2023-09-12T06:32:14;384.40;2329.60
55151;DHT22;41041;43.162;20.538;2023-09-12T06:42:38;409.60;2355.20
55151;DHT22;41041;43.162;20.538;2023-09-12T06:45:04;384.70;2329.60
55151;DHT22;41041;43.162;20.538;2023-09-12T06:47:30;384.60;2329.60
55151;DHT22;41041;43.162;20.538;2023-09-12T06:49:55;384.60;2329.60
55151;DHT22;41041;43.162;20.538;2023-09-12T06:52:21;384.60;2329.60
55151;DHT22;41041;43.162;20.538;2023-09-12T06:54:47;384.90;2329.60
55151;DHT22;41041;43.162;20.538;2023-09-12T06:57:13;384.90;2329.60
55151;DHT22;41041;43.162;20.538;2023-09-12T06:59:39;410.00;2355.20
55151;DHT22;41041;43.162;20.538;2023-09-12T07:02:05;410.20;2355.20
55151;DHT22;41041;43.162;20.538;2023-09-12T07:04:31;410.20;2355.20
55151;DHT22;41041;43.162;20.538;2023-09-12T07:09:23;435.30;2355.20
55151;DHT22;41041;43.162;20.538;2023-09-12T07:11:49;410.50;2355.20
55151;DHT22;41041;43.162;20.538;2023-09-12T07:14:15;410.50;2355.20
55151;DHT22;41041;43.162;20.538;2023-09-12T07:16:48;435.20;2355.20
55151;DHT22;41041;43.162;20.538;2023-09-12T07:19:25;435.20;2355.20
55151;DHT22;41041;43.162;20.538;2023-09-12T07:21:51;435.30;2355.20
55151;DHT22;41041;43.162;20.538;2023-09-12T07:24:16;435.40;2355.20
55151;DHT22;41041;43.162;20.538;2023-09-12T07:26:42;435.50;2355.20
55151;DHT22;41041;43.162;20.538;2023-09-12T07:29:08;435.70;2355.20
55151;DHT22;41041;43.162;20.538;2023-09-12T07:31:33;435.70;2355.20
55151;DHT22;41041;43.162;20.538;2023-09-12T07:33:59;435.80;2355.20
55151;DHT22;41041;43.162;20.538;2023-09-12T07:36:25;436.00;2355.20
55151;DHT22;41041;43.162;20.538;2023-09-12T07:38:51;436.10;2355.20
55151;DHT22;41041;43.162;20.538;2023-09-12T07:41:17;460.80;2380.80
55151;DHT22;41041;43.162;20.538;2023-09-12T07:43:44;460.90;2380.80
55151;DHT22;41041;43.162;20.538;2023-09-12T07:46:10;461.10;2380.80
55151;DHT22;41041;43.162;20.538;2023-09-12T07:48:35;461.00;2380.80
55151;DHT22;41041;43.162;20.538;2023-09-12T07:51:01;461.10;2380.80
55151;DHT22;41041;43.162;20.538;2023-09-12T07:53:28;461.50;2380.80
55151;DHT22;41041;43.162;20.538;2023-09-12T07:55:53;461.40;2380.80
55151;DHT22;41041;43.162;20.538;2023-09-12T07:58:20;461.70;2380.80
55151;DHT22;41041;43.162;20.538;2023-09-12T08:00:47;461.60;2380.80
55151;DHT22;41041;43.162;20.538;2023-09-12T08:03:13;461.60;2380.80
55151;DHT22;41041;43.162;20.538;2023-09-12T08:12:59;487.00;2380.80
55151;DHT22;41041;43.162;20.538;2023-09-12T08:15:25;486.90;2380.80
55151;DHT22;41041;43.162;20.538;2023-09-12T08:17:54;486.80;2380.80
55151;DHT22;41041;43.162;20.538;2023-09-12T08:25:12;512.00;2380.80
55151;DHT22;41041;43.162;20.538;2023-09-12T08:27:50;487.20;2380.80
55151;DHT22;41041;43.162;20.538;2023-09-12T08:30:16;487.20;2380.80
55151;DHT22;41041;43.162;20.538;2023-09-12T08:32:57;512.00;2380.80
55151;DHT22;41041;43.162;20.538;2023-09-12T08:35:23;512.10;2380.80
55151;DHT22;41041;43.162;20.538;2023-09-12T08:37:48;512.30;2380.80
55151;DHT22;41041;43.162;20.538;2023-09-12T08:40:17;512.40;2380.80
55151;DHT22;41041;43.162;20.538;2023-09-12T08:42:44;512.40;2380.80
55151;DHT22;41041;43.162;20.538;2023-09-12T08:45:16;512.60;2380.80
55151;DHT22;41041;43.162;20.538;2023-09-12T08:47:44;512.70;2380.80
55151;DHT22;41041;43.162;20.538;2023-09-12T08:50:12;512.80;2380.80
55151;DHT22;41041;43.162;20.538;2023-09-12T08:52:42;512.90;2380.80
55151;DHT22;41041;43.162;20.538;2023-09-12T08:55:09;512.90;2380.80
55151;DHT22;41041;43.162;20.538;2023-09-12T08:57:38;537.90;2406.40
55151;DHT22;41041;43.162;20.538;2023-09-12T09:00:07;538.20;2406.40
55151;DHT22;41041;43.162;20.538;2023-09-12T09:02:40;538.20;2406.40
55151;DHT22;41041;43.162;20.538;2023-09-12T09:17:49;563.50;2432.00
55151;DHT22;41041;43.162;20.538;2023-09-12T09:23:01;563.40;2432.00
55151;DHT22;41041;43.162;20.538;2023-09-12T09:25:31;563.40;2432.00
55151;DHT22;41041;43.162;20.538;2023-09-12T09:27:57;563.50;2432.00
55151;DHT22;41041;43.162;20.538;2023-09-12T09:30:50;563.80;2432.00
55151;DHT22;41041;43.162;20.538;2023-09-12T09:33:17;563.70;2432.00
55151;DHT22;41041;43.162;20.538;2023-09-12T09:35:47;563.80;2432.00
55151;DHT22;41041;43.162;20.538;2023-09-12T09:38:14;588.90;2432.00
55151;DHT22;41041;43.162;20.538;2023-09-12T09:40:43;564.10;2432.00
55151;DHT22;41041;43.162;20.538;2023-09-12T09:43:09;589.00;2432.00
55151;DHT22;41041;43.162;20.538;2023-09-12T09:45:43;589.20;2432.00
55151;DHT22;41041;43.162;20.538;2023-09-12T09:48:39;589.10;2432.00
55151;DHT22;41041;43.162;20.538;2023-09-12T09:51:13;589.10;2432.00
55151;DHT22;41041;43.162;20.538;2023-09-12T09:53:39;589.20;2432.00
55151;DHT22;41041;43.162;20.538;2023-09-12T09:56:09;589.20;2432.00
55151;DHT22;41041;43.162;20.538;2023-09-12T09:58:38;589.30;2432.00
55151;DHT22;41041;43.162;20.538;2023-09-12T10:01:09;589.40;2432.00
55151;DHT22;41041;43.162;20.538;2023-09-12T10:03:36;589.50;2432.00
55151;DHT22;41041;43.162;20.538;2023-09-12T10:06:04;589.70;2355.20
55151;DHT22;41041;43.162;20.538;2023-09-12T10:08:33;614.50;2432.00
55151;DHT22;41041;43.162;20.538;2023-09-12T10:10:59;614.40;2432.00
55151;DHT22;41041;43.162;20.538;2023-09-12T10:13:27;614.70;2432.00
55151;DHT22;41041;43.162;20.538;2023-09-12T10:15:59;614.60;2432.00
55151;DHT22;41041;43.162;20.538;2023-09-12T10:18:29;614.60;2406.40
55151;DHT22;41041;43.162;20.538;2023-09-12T10:21:11;614.70;2406.40
55151;DHT22;41041;43.162;20.538;2023-09-12T10:23:45;614.70;2329.60
55151;DHT22;41041;43.162;20.538;2023-09-12T10:26:14;614.70;2304.00
55151;DHT22;41041;43.162;20.538;2023-09-12T10:28:41;615.00;2380.80
55151;DHT22;41041;43.162;20.538;2023-09-12T10:31:08;614.90;2355.20
55151;DHT22;41041;43.162;20.538;2023-09-12T10:33:35;615.00;2329.60
55151;DHT22;41041;43.162;20.538;2023-09-12T10:36:06;615.20;2380.80
55151;DHT22;41041;43.162;20.538;2023-09-12T10:38:44;615.10;2355.20
55151;DHT22;41041;43.162;20.538;2023-09-12T10:41:14;615.20;2329.60
55151;DHT22;41041;43.162;20.538;2023-09-12T10:43:42;640.00;2201.60
55151;DHT22;41041;43.162;20.538;2023-09-12T10:46:08;640.00;2252.80
55151;DHT22;41041;43.162;20.538;2023-09-12T10:48:36;640.10;2304.00
55151;DHT22;41041;43.162;20.538;2023-09-12T10:51:11;640.10;2201.60
55151;DHT22;41041;43.162;20.538;2023-09-12T10:53:38;640.50;2176.00
55151;DHT22;41041;43.162;20.538;2023-09-12T10:58:32;640.40;2150.40
55151;DHT22;41041;43.162;20.538;2023-09-12T11:01:24;640.40;2150.40
55151;DHT22;41041;43.162;20.538;2023-09-12T11:03:52;640.50;2201.60
55151;DHT22;41041;43.162;20.538;2023-09-12T11:06:23;640.50;2176.00
55151;DHT22;41041;43.162;20.538;2023-09-12T11:11:33;640.70;2176.00
55151;DHT22;41041;43.162;20.538;2023-09-12T11:14:03;640.80;2176.00
55151;DHT22;41041;43.162;20.538;2023-09-12T11:16:29;640.80;2252.80
55151;DHT22;41041;43.162;20.538;2023-09-12T11:21:48;665.60;2150.40
55151;DHT22;41041;43.162;20.538;2023-09-12T11:24:14;665.60;2022.40
55151;DHT22;41041;43.162;20.538;2023-09-12T11:27:00;665.80;1971.20
55151;DHT22;41041;43.162;20.538;2023-09-12T11:29:35;665.90;1996.80
55151;DHT22;41041;43.162;20.538;2023-09-12T11:32:02;666.00;1920.00
55151;DHT22;41041;43.162;20.538;2023-09-12T11:34:42;666.00;1894.40
55151;DHT22;41041;43.162;20.538;2023-09-12T11:37:10;666.00;1945.60
55151;DHT22;41041;43.162;20.538;2023-09-12T11:39:37;666.20;1945.60
55151;DHT22;41041;43.162;20.538;2023-09-12T11:42:05;666.10;1971.20
55151;DHT22;41041;43.162;20.538;2023-09-12T11:44:34;666.20;1843.20
55151;DHT22;41041;43.162;20.538;2023-09-12T11:47:00;666.30;1817.60
55151;DHT22;41041;43.162;20.538;2023-09-12T11:49:39;666.30;1612.80
55151;DHT22;41041;43.162;20.538;2023-09-12T11:52:12;666.40;1664.00
55151;DHT22;41041;43.162;20.538;2023-09-12T11:54:39;666.50;1587.20
55151;DHT22;41041;43.162;20.538;2023-09-12T11:57:08;666.50;1587.20
55151;DHT22;41041;43.162;20.538;2023-09-12T11:59:37;666.50;1587.20
55151;DHT22;41041;43.162;20.538;2023-09-12T12:02:06;666.50;1536.00
55151;DHT22;41041;43.162;20.538;2023-09-12T12:04:33;691.20;1510.40
55151;DHT22;41041;43.162;20.538;2023-09-12T12:07:00;691.20;1459.20
55151;DHT22;41041;43.162;20.538;2023-09-12T12:09:27;691.30;1484.80
55151;DHT22;41041;43.162;20.538;2023-09-12T12:11:53;691.30;1484.80
55151;DHT22;41041;43.162;20.538;2023-09-12T12:14:18;691.30;1484.80
55151;DHT22;41041;43.162;20.538;2023-09-12T12:16:48;691.30;1510.40
55151;DHT22;41041;43.162;20.538;2023-09-12T12:19:14;691.30;1510.40
55151;DHT22;41041;43.162;20.538;2023-09-12T12:21:41;691.30;1484.80
55151;DHT22;41041;43.162;20.538;2023-09-12T12:24:16;691.40;1459.20
55151;DHT22;41041;43.162;20.538;2023-09-12T12:26:43;691.50;1510.40
55151;DHT22;41041;43.162;20.538;2023-09-12T12:29:10;691.50;1459.20
55151;DHT22;41041;43.162;20.538;2023-09-12T12:31:37;691.70;1433.60
55151;DHT22;41041;43.162;20.538;2023-09-12T12:34:04;691.70;1459.20
55151;DHT22;41041;43.162;20.538;2023-09-12T12:36:30;691.60;1433.60
55151;DHT22;41041;43.162;20.538;2023-09-12T12:38:56;691.80;1484.80
55151;DHT22;41041;43.162;20.538;2023-09-12T12:41:27;691.70;1510.40
55151;DHT22;41041;43.162;20.538;2023-09-12T12:43:56;691.70;1561.60
55151;DHT22;41041;43.162;20.538;2023-09-12T12:46:24;691.80;1510.40
55151;DHT22;41041;43.162;20.538;2023-09-12T12:48:50;691.80;1459.20
55151;DHT22;41041;43.162;20.538;2023-09-12T12:51:21;692.00;1459.20
55151;DHT22;41041;43.162;20.538;2023-09-12T12:53:55;692.10;1510.40
55151;DHT22;41041;43.162;20.538;2023-09-12T12:56:27;692.10;1459.20
55151;DHT22;41041;43.162;20.538;2023-09-12T12:58:59;716.80;1459.20
55151;DHT22;41041;43.162;20.538;2023-09-12T13:01:28;717.00;1459.20
55151;DHT22;41041;43.162;20.538;2023-09-12T13:03:54;717.00;1408.00
55151;DHT22;41041;43.162;20.538;2023-09-12T13:06:22;717.10;1459.20
55151;DHT22;41041;43.162;20.538;2023-09-12T13:08:49;717.30;1433.60
55151;DHT22;41041;43.162;20.538;2023-09-12T13:11:16;717.40;1484.80
55151;DHT22;41041;43.162;20.538;2023-09-12T13:13:42;717.50;1408.00
55151;DHT22;41041;43.162;20.538;2023-09-12T13:16:10;742.40;1536.00
55151;DHT22;41041;43.162;20.538;2023-09-12T13:18:39;742.40;1433.60
55151;DHT22;41041;43.162;20.538;2023-09-12T13:21:06;742.50;1459.20
55151;DHT22;41041;43.162;20.538;2023-09-12T13:23:37;742.50;1459.20
55151;DHT22;41041;43.162;20.538;2023-09-12T13:26:03;742.60;1459.20
55151;DHT22;41041;43.162;20.538;2023-09-12T13:28:30;742.80;1459.20
55151;DHT22;41041;43.162;20.538;2023-09-12T13:30:56;742.80;1484.80
55151;DHT22;41041;43.162;20.538;2023-09-12T13:33:23;742.90;1510.40
55151;DHT22;41041;43.162;20.538;2023-09-12T13:35:49;742.90;1459.20
55151;DHT22;41041;43.162;20.538;2023-09-12T13:38:16;743.20;1433.60
55151;DHT22;41041;43.162;20.538;2023-09-12T13:40:45;743.30;1433.60
55151;DHT22;41041;43.162;20.538;2023-09-12T13:43:11;743.20;1433.60
55151;DHT22;41041;43.162;20.538;2023-09-12T13:48:04;743.20;1382.40
55151;DHT22;41041;43.162;20.538;2023-09-12T13:50:31;768.00;1408.00
55151;DHT22;41041;43.162;20.538;2023-09-12T13:53:01;768.10;1459.20
55151;DHT22;41041;43.162;20.538;2023-09-12T13:55:35;768.20;1484.80
55151;DHT22;41041;43.162;20.538;2023-09-12T13:58:13;768.30;1433.60
55151;DHT22;41041;43.162;20.538;2023-09-12T14:00:39;768.30;1459.20
55151;DHT22;41041;43.162;20.538;2023-09-12T14:03:05;768.40;1459.20
55151;DHT22;41041;43.162;20.538;2023-09-12T14:05:31;768.50;1459.20
55151;DHT22;41041;43.162;20.538;2023-09-12T14:07:56;768.50;1459.20
55151;DHT22;41041;43.162;20.538;2023-09-12T14:10:22;793.60;1459.20
55151;DHT22;41041;43.162;20.538;2023-09-12T14:15:14;768.90;1433.60
55151;DHT22;41041;43.162;20.538;2023-09-12T14:17:43;794.10;1382.40
55151;DHT22;41041;43.162;20.538;2023-09-12T14:20:10;794.10;1408.00
55151;DHT22;41041;43.162;20.538;2023-09-12T14:22:36;794.00;1382.40
55151;DHT22;41041;43.162;20.538;2023-09-12T14:27:28;794.20;1408.00
55151;DHT22;41041;43.162;20.538;2023-09-12T14:29:54;794.40;1408.00
55151;DHT22;41041;43.162;20.538;2023-09-12T14:32:20;794.30;1356.80
55151;DHT22;41041;43.162;20.538;2023-09-12T14:34:46;794.20;1382.40
55151;DHT22;41041;43.162;20.538;2023-09-12T14:37:12;794.10;1382.40
55151;DHT22;41041;43.162;20.538;2023-09-12T14:39:40;794.20;1433.60
55151;DHT22;41041;43.162;20.538;2023-09-12T14:42:05;794.40;1382.40
55151;DHT22;41041;43.162;20.538;2023-09-12T14:44:37;794.40;1382.40
55151;DHT22;41041;43.162;20.538;2023-09-12T14:47:03;794.30;1382.40
55151;DHT22;41041;43.162;20.538;2023-09-12T14:49:29;794.40;1356.80
55151;DHT22;41041;43.162;20.538;2023-09-12T14:51:54;794.40;1356.80
55151;DHT22;41041;43.162;20.538;2023-09-12T14:54:20;794.40;1331.20
55151;DHT22;41041;43.162;20.538;2023-09-12T14:56:48;794.40;1331.20
55151;DHT22;41041;43.162;20.538;2023-09-12T14:59:21;794.50;1331.20
55151;DHT22;41041;43.162;20.538;2023-09-12T15:04:16;819.50;1356.80
55151;DHT22;41041;43.162;20.538;2023-09-12T15:06:42;819.30;1331.20
55151;DHT22;41041;43.162;20.538;2023-09-12T15:09:08;819.50;1356.80
55151;DHT22;41041;43.162;20.538;2023-09-12T15:11:33;819.50;1305.60
55151;DHT22;41041;43.162;20.538;2023-09-12T15:13:59;819.70;1331.20
55151;DHT22;41041;43.162;20.538;2023-09-12T15:16:26;819.70;1331.20
55151;DHT22;41041;43.162;20.538;2023-09-12T15:18:53;819.70;1305.60
55151;DHT22;41041;43.162;20.538;2023-09-12T15:21:19;844.90;1331.20
55151;DHT22;41041;43.162;20.538;2023-09-12T15:23:49;844.80;1331.20
55151;DHT22;41041;43.162;20.538;2023-09-12T15:26:15;844.80;1305.60
55151;DHT22;41041;43.162;20.538;2023-09-12T15:28:43;820.10;1305.60
55151;DHT22;41041;43.162;20.538;2023-09-12T15:31:09;844.80;1356.80
55151;DHT22;41041;43.162;20.538;2023-09-12T15:33:34;844.80;1331.20
55151;DHT22;41041;43.162;20.538;2023-09-12T15:36:00;820.00;1305.60
55151;DHT22;41041;43.162;20.538;2023-09-12T15:38:27;820.10;1305.60
55151;DHT22;41041;43.162;20.538;2023-09-12T15:40:54;844.80;1331.20
55151;DHT22;41041;43.162;20.538;2023-09-12T15:43:22;844.80;1331.20
55151;DHT22;41041;43.162;20.538;2023-09-12T15:45:57;820.10;1331.20
55151;DHT22;41041;43.162;20.538;2023-09-12T15:48:23;820.00;1331.20
55151;DHT22;41041;43.162;20.538;2023-09-12T15:50:51;819.90;1356.80
55151;DHT22;41041;43.162;20.538;2023-09-12T15:53:16;819.80;1331.20
55151;DHT22;41041;43.162;20.538;2023-09-12T15:55:42;819.60;1356.80
55151;DHT22;41041;43.162;20.538;2023-09-12T16:03:55;819.70;1356.80
55151;DHT22;41041;43.162;20.538;2023-09-12T16:06:21;819.40;1382.40
55151;DHT22;41041;43.162;20.538;2023-09-12T16:08:47;819.40;1433.60
55151;DHT22;41041;43.162;20.538;2023-09-12T16:11:13;819.20;1484.80
55151;DHT22;41041;43.162;20.538;2023-09-12T16:13:40;794.40;1510.40
55151;DHT22;41041;43.162;20.538;2023-09-12T16:16:06;794.40;1536.00
55151;DHT22;41041;43.162;20.538;2023-09-12T16:18:32;794.20;1536.00
55151;DHT22;41041;43.162;20.538;2023-09-12T16:20:59;794.20;1561.60
55151;DHT22;41041;43.162;20.538;2023-09-12T16:23:25;793.90;1587.20
55151;DHT22;41041;43.162;20.538;2023-09-12T16:26:00;768.90;1587.20
55151;DHT22;41041;43.162;20.538;2023-09-12T16:28:26;768.50;1638.40
55151;DHT22;41041;43.162;20.538;2023-09-12T16:30:52;768.00;1715.20
55151;DHT22;41041;43.162;20.538;2023-09-12T16:33:19;743.20;1689.60
55151;DHT22;41041;43.162;20.538;2023-09-12T16:35:46;742.70;1766.40
55151;DHT22;41041;43.162;20.538;2023-09-12T16:38:12;742.50;1868.80
55151;DHT22;41041;43.162;20.538;2023-09-12T16:40:39;717.60;1868.80
55151;DHT22;41041;43.162;20.538;2023-09-12T16:43:05;717.40;1894.40
55151;DHT22;41041;43.162;20.538;2023-09-12T16:45:31;717.20;1920.00
55151;DHT22;41041;43.162;20.538;2023-09-12T16:47:57;716.80;1945.60
55151;DHT22;41041;43.162;20.538;2023-09-12T16:50:25;692.10;1996.80
55151;DHT22;41041;43.162;20.538;2023-09-12T16:52:51;691.80;1996.80
55151;DHT22;41041;43.162;20.538;2023-09-12T16:55:18;691.80;2022.40
55151;DHT22;41041;43.162;20.538;2023-09-12T16:58:04;691.60;2022.40
55151;DHT22;41041;43.162;20.538;2023-09-12T17:02:56;691.30;2099.20
55151;DHT22;41041;43.162;20.538;2023-09-12T17:05:32;666.40;2099.20
55151;DHT22;41041;43.162;20.538;2023-09-12T17:07:57;666.10;2124.80
55151;DHT22;41041;43.162;20.538;2023-09-12T17:10:23;665.90;2124.80
55151;DHT22;41041;43.162;20.538;2023-09-12T17:13:07;665.70;2176.00
55151;DHT22;41041;43.162;20.538;2023-09-12T17:15:33;665.60;2227.20
55151;DHT22;41041;43.162;20.538;2023-09-12T17:18:04;640.70;2227.20
55151;DHT22;41041;43.162;20.538;2023-09-12T17:20:30;640.50;2227.20
55151;DHT22;41041;43.162;20.538;2023-09-12T17:22:55;640.40;2227.20
55151;DHT22;41041;43.162;20.538;2023-09-12T17:25:21;640.30;2227.20
55151;DHT22;41041;43.162;20.538;2023-09-12T17:27:47;640.20;2252.80
55151;DHT22;41041;43.162;20.538;2023-09-12T17:30:14;640.20;2227.20
55151;DHT22;41041;43.162;20.538;2023-09-12T17:32:40;615.30;2227.20
55151;DHT22;41041;43.162;20.538;2023-09-12T17:38:28;640.00;2252.80
55151;DHT22;41041;43.162;20.538;2023-09-12T17:40:54;615.10;2278.40
55151;DHT22;41041;43.162;20.538;2023-09-12T17:43:20;614.90;2278.40
55151;DHT22;41041;43.162;20.538;2023-09-12T17:45:45;614.90;2278.40
55151;DHT22;41041;43.162;20.538;2023-09-12T17:48:11;614.80;2304.00
55151;DHT22;41041;43.162;20.538;2023-09-12T17:57:55;614.80;2278.40
55151;DHT22;41041;43.162;20.538;2023-09-12T18:00:22;614.50;2304.00
55151;DHT22;41041;43.162;20.538;2023-09-12T18:06:03;589.70;2304.00
55151;DHT22;41041;43.162;20.538;2023-09-12T18:08:29;589.60;2304.00
55151;DHT22;41041;43.162;20.538;2023-09-12T18:10:55;589.50;2329.60
55151;DHT22;41041;43.162;20.538;2023-09-12T18:13:20;589.40;2355.20
55151;DHT22;41041;43.162;20.538;2023-09-12T18:15:46;589.40;2380.80
55151;DHT22;41041;43.162;20.538;2023-09-12T18:18:12;589.20;2432.00
55151;DHT22;41041;43.162;20.538;2023-09-12T18:20:38;589.00;2432.00
55151;DHT22;41041;43.162;20.538;2023-09-12T18:23:03;589.00;2406.40
55151;DHT22;41041;43.162;20.538;2023-09-12T18:25:42;588.90;2432.00
55151;DHT22;41041;43.162;20.538;2023-09-12T18:28:07;564.10;2432.00
55151;DHT22;41041;43.162;20.538;2023-09-12T18:30:35;564.00;2432.00
55151;DHT22;41041;43.162;20.538;2023-09-12T18:33:01;563.90;2432.00
55151;DHT22;41041;43.162;20.538;2023-09-12T18:38:42;563.90;2432.00
55151;DHT22;41041;43.162;20.538;2023-09-12T18:41:09;563.90;2432.00
55151;DHT22;41041;43.162;20.538;2023-09-12T18:43:36;563.90;2432.00
55151;DHT22;41041;43.162;20.538;2023-09-12T18:46:02;563.70;2432.00
55151;DHT22;41041;43.162;20.538;2023-09-12T18:48:29;563.60;2432.00
55151;DHT22;41041;43.162;20.538;2023-09-12T18:50:55;563.50;2432.00
55151;DHT22;41041;43.162;20.538;2023-09-12T18:53:21;563.50;2432.00
55151;DHT22;41041;43.162;20.538;2023-09-12T18:58:17;563.70;2432.00
55151;DHT22;41041;43.162;20.538;2023-09-12T19:00:44;563.40;2432.00
55151;DHT22;41041;43.162;20.538;2023-09-12T19:05:42;563.30;2432.00
55151;DHT22;41041;43.162;20.538;2023-09-12T19:08:08;538.40;2406.40
55151;DHT22;41041;43.162;20.538;2023-09-12T19:10:35;538.30;2406.40
55151;DHT22;41041;43.162;20.538;2023-09-12T19:13:11;538.10;2406.40
55151;DHT22;41041;43.162;20.538;2023-09-12T19:15:37;538.10;2406.40
55151;DHT22;41041;43.162;20.538;2023-09-12T19:18:04;538.10;2406.40